Time;durP1;ratioP1;P1;durP2;ratioP2;P2;SDS_P1;SDS_P2;PMS_P1;PMS_P2;Temp;Humidity;BMP_temperature;BMP_pressure;BME280_temperature;BME280_humidity;BME280_pressure;Samples;Min_cycle;Max_cycle;Signal;HPM_P1;HPM_P2
2021/11/14 00:01:15;;;;;;;21.60;15.50;;;10.50;99.90;;;;;;5045058;28;20567;-48
2021/11/14 00:03:40;;;;;;;19.93;15.70;;;10.50;99.90;;;;;;5046749;28;20428;-50
2021/11/14 00:06:08;;;;;;;22.67;15.60;;;10.50;99.90;;;;;;5043837;28;20430;-49
2021/11/14 00:08:34;;;;;;;22.23;14.40;;;10.40;99.90;;;;;;5042506;28;20238;-50
2021/11/14 00:11:09;;;;;;;18.47;15.00;;;10.40;99.90;;;;;;5039632;28;20472;-50
2021/11/14 00:13:37;;;;;;;22.03;14.10;;;10.40;99.90;;;;;;5044311;28;20440;-52
2021/11/14 00:16:03;;;;;;;18.97;15.07;;;10.40;99.90;;;;;;5044357;28;20426;-54
2021/11/14 00:18:28;;;;;;;17.90;14.37;;;10.40;99.90;;;;;;5043760;28;20442;-52
2021/11/14 00:20:54;;;;;;;17.07;13.97;;;10.30;99.90;;;;;;5049588;28;20469;-53
2021/11/14 00:23:20;;;;;;;18.23;13.97;;;10.40;99.90;;;;;;5047639;28;20270;-54
2021/11/14 00:25:46;;;;;;;18.93;13.53;;;10.40;99.90;;;;;;5043569;28;20202;-55
2021/11/14 00:28:13;;;;;;;20.07;13.40;;;10.40;99.90;;;;;;5043468;28;20423;-52
2021/11/14 00:30:39;;;;;;;17.60;13.40;;;10.40;99.90;;;;;;5046087;28;20845;-53
2021/11/14 00:33:06;;;;;;;18.93;14.10;;;10.40;99.90;;;;;;5044191;28;20430;-53
2021/11/14 00:35:32;;;;;;;19.17;14.20;;;10.40;99.90;;;;;;5040859;28;20442;-55
2021/11/14 00:37:58;;;;;;;18.90;14.40;;;10.40;99.90;;;;;;5046588;28;20890;-55
2021/11/14 00:40:28;;;;;;;18.10;14.33;;;10.50;99.90;;;;;;5040381;28;20546;-53
2021/11/14 00:42:55;;;;;;;19.27;14.83;;;10.50;99.90;;;;;;5046494;28;20194;-56
2021/11/14 00:45:22;;;;;;;20.20;14.03;;;10.60;99.90;;;;;;5044893;28;20508;-56
2021/11/14 00:47:48;;;;;;;22.03;14.50;;;10.60;99.90;;;;;;5043929;28;20427;-53
2021/11/14 00:50:14;;;;;;;18.93;14.80;;;10.60;99.90;;;;;;5041291;28;21019;-55
2021/11/14 00:52:42;;;;;;;22.10;14.20;;;10.60;99.90;;;;;;5042621;28;20199;-50
2021/11/14 00:55:09;;;;;;;23.10;15.30;;;10.60;99.90;;;;;;5045431;28;20480;-55
2021/11/14 00:57:35;;;;;;;21.33;15.57;;;10.60;99.90;;;;;;5042006;28;20445;-55
2021/11/14 01:00:01;;;;;;;18.50;15.43;;;10.70;99.90;;;;;;5043328;28;20462;-56
2021/11/14 01:02:27;;;;;;;23.03;15.87;;;10.70;99.90;;;;;;5045333;28;20184;-56
2021/11/14 01:04:52;;;;;;;21.90;14.90;;;10.70;99.90;;;;;;5044277;28;20188;-51
2021/11/14 01:07:18;;;;;;;21.37;14.10;;;10.70;99.90;;;;;;5034563;28;20442;-55
2021/11/14 01:09:44;;;;;;;18.37;13.80;;;10.80;99.90;;;;;;5045559;28;20215;-55
2021/11/14 01:12:10;;;;;;;21.57;15.60;;;10.90;99.90;;;;;;5043435;28;20669;-55
2021/11/14 01:14:36;;;;;;;23.97;15.07;;;10.70;99.90;;;;;;5042079;28;20230;-51
2021/11/14 01:17:04;;;;;;;24.67;16.50;;;10.70;99.90;;;;;;5042289;28;20430;-50
2021/11/14 01:19:29;;;;;;;20.33;14.40;;;10.70;99.90;;;;;;5042167;28;20485;-54
2021/11/14 01:21:55;;;;;;;21.73;15.60;;;10.70;99.90;;;;;;5040761;28;20454;-53
2021/11/14 01:24:21;;;;;;;21.43;15.70;;;10.70;99.90;;;;;;5041552;28;20626;-52
2021/11/14 01:26:46;;;;;;;21.50;15.10;;;10.80;99.90;;;;;;5044676;28;20195;-52
2021/11/14 01:29:12;;;;;;;22.83;16.83;;;10.70;99.90;;;;;;5041404;28;20196;-56
2021/11/14 01:31:38;;;;;;;21.93;15.87;;;10.70;99.90;;;;;;5037344;28;20187;-55
2021/11/14 01:34:04;;;;;;;27.83;16.40;;;10.80;99.90;;;;;;5043779;28;20481;-55
2021/11/14 01:36:33;;;;;;;26.30;16.10;;;10.60;99.90;;;;;;5043819;28;20552;-53
2021/11/14 01:39:00;;;;;;;24.93;16.63;;;10.60;99.90;;;;;;5041008;28;20446;-53
2021/11/14 01:41:26;;;;;;;24.40;18.20;;;10.60;99.90;;;;;;5042792;28;20445;-54
2021/11/14 01:43:53;;;;;;;23.37;17.13;;;10.60;99.90;;;;;;5043468;28;20517;-55
2021/11/14 01:46:19;;;;;;;22.80;16.97;;;10.70;99.90;;;;;;5044541;28;20228;-52
2021/11/14 01:48:46;;;;;;;24.90;15.50;;;10.80;99.90;;;;;;5042524;28;20525;-55
2021/11/14 01:51:12;;;;;;;23.37;16.83;;;10.80;99.90;;;;;;5040574;28;20798;-55
2021/11/14 01:53:38;;;;;;;23.63;16.90;;;10.70;99.90;;;;;;5042439;28;20533;-53
2021/11/14 01:56:06;;;;;;;21.60;14.87;;;10.60;99.90;;;;;;5041720;28;20657;-55
2021/11/14 01:58:32;;;;;;;22.80;16.30;;;10.70;99.90;;;;;;5041932;28;20430;-54
2021/11/14 02:01:04;;;;;;;25.47;16.77;;;10.70;99.90;;;;;;5044545;28;20496;-55
2021/11/14 02:03:32;;;;;;;23.10;17.17;;;10.70;99.90;;;;;;5041859;28;20434;-53
2021/11/14 02:05:59;;;;;;;23.50;16.90;;;10.60;99.90;;;;;;5045829;28;20426;-54
2021/11/14 02:08:25;;;;;;;20.10;14.63;;;10.70;99.90;;;;;;5044154;28;20424;-55
2021/11/14 02:10:52;;;;;;;25.43;15.77;;;10.80;99.90;;;;;;5038921;28;20508;-54
2021/11/14 02:13:19;;;;;;;22.90;16.27;;;10.80;99.90;;;;;;5044658;28;20442;-53
2021/11/14 02:15:45;;;;;;;18.87;15.33;;;10.90;99.90;;;;;;5042225;28;20423;-55
2021/11/14 02:18:13;;;;;;;21.63;15.73;;;11.00;99.90;;;;;;5041344;28;20526;-54
2021/11/14 02:20:40;;;;;;;21.73;15.10;;;10.90;99.90;;;;;;5045190;28;21023;-52
2021/11/14 02:23:09;;;;;;;25.83;15.87;;;10.70;99.90;;;;;;5043017;28;20430;-52
2021/11/14 02:25:35;;;;;;;22.50;16.27;;;10.70;99.90;;;;;;5042552;28;20434;-54
2021/11/14 02:28:01;;;;;;;20.90;15.43;;;10.80;99.90;;;;;;5048113;28;20453;-55
2021/11/14 02:30:27;;;;;;;22.70;15.20;;;10.90;99.90;;;;;;5042917;28;20473;-53
2021/11/14 02:32:53;;;;;;;21.83;14.63;;;10.80;99.90;;;;;;5049909;28;20414;-53
2021/11/14 02:35:20;;;;;;;19.90;15.23;;;10.80;99.90;;;;;;5050478;28;20918;-55
2021/11/14 02:37:46;;;;;;;20.20;15.43;;;10.70;99.90;;;;;;5045823;28;22195;-54
2021/11/14 02:40:13;;;;;;;22.20;17.30;;;10.90;99.90;;;;;;5043934;28;20804;-54
2021/11/14 02:42:39;;;;;;;21.87;16.00;;;11.10;99.90;;;;;;5045323;28;20191;-56
2021/11/14 02:45:06;;;;;;;21.10;15.67;;;11.20;99.90;;;;;;5044855;28;20426;-51
2021/11/14 02:47:32;;;;;;;22.90;14.93;;;11.20;99.90;;;;;;5049232;28;20176;-50
2021/11/14 02:49:58;;;;;;;23.83;15.07;;;11.20;99.90;;;;;;5048469;28;20477;-54
2021/11/14 02:52:24;;;;;;;17.80;14.33;;;11.30;99.90;;;;;;5043631;28;20423;-54
2021/11/14 02:54:50;;;;;;;19.67;13.90;;;11.20;99.90;;;;;;5047889;28;20942;-50
2021/11/14 02:57:16;;;;;;;19.40;14.47;;;11.20;99.90;;;;;;5043789;28;20933;-56
2021/11/14 02:59:42;;;;;;;21.37;14.50;;;11.20;99.90;;;;;;5045329;28;20218;-56
2021/11/14 03:02:07;;;;;;;21.97;15.90;;;11.30;99.90;;;;;;5044780;28;20434;-51
2021/11/14 03:04:33;;;;;;;21.10;14.60;;;11.40;99.90;;;;;;5044893;28;20187;-53
2021/11/14 03:07:00;;;;;;;16.60;13.03;;;11.20;99.90;;;;;;5048877;28;20180;-50
2021/11/14 03:09:26;;;;;;;18.40;15.43;;;11.20;99.90;;;;;;5043076;28;20207;-55
2021/11/14 03:11:55;;;;;;;19.30;14.90;;;11.30;99.90;;;;;;5048762;28;20410;-51
2021/11/14 03:14:21;;;;;;;18.97;14.50;;;11.30;99.90;;;;;;5045580;28;20459;-53
2021/11/14 03:16:47;;;;;;;20.17;13.93;;;11.30;99.90;;;;;;5043150;28;20732;-49
2021/11/14 03:19:14;;;;;;;14.67;12.67;;;11.20;99.90;;;;;;5051137;28;21084;-51
2021/11/14 03:21:41;;;;;;;19.03;12.10;;;11.30;99.90;;;;;;5040926;28;20426;-50
2021/11/14 03:24:07;;;;;;;15.40;10.97;;;11.20;99.90;;;;;;5046937;28;20761;-51
2021/11/14 03:26:33;;;;;;;14.57;10.80;;;11.30;99.90;;;;;;5045044;28;20899;-53
2021/11/14 03:28:59;;;;;;;16.60;11.70;;;11.40;99.90;;;;;;5047934;28;21089;-53
2021/11/14 03:31:26;;;;;;;16.03;10.40;;;11.40;99.90;;;;;;5047974;28;20521;-50
2021/11/14 03:33:53;;;;;;;15.67;11.60;;;11.30;99.90;;;;;;5040845;28;20188;-49
2021/11/14 03:36:19;;;;;;;13.30;10.83;;;11.20;99.90;;;;;;5046783;28;20420;-51
2021/11/14 03:38:51;;;;;;;13.43;10.47;;;11.00;99.90;;;;;;5046867;28;20425;-53
2021/11/14 03:41:30;;;;;;;16.77;10.53;;;10.80;99.90;;;;;;5044514;28;20776;-49
2021/11/14 03:43:56;;;;;;;12.30;10.70;;;10.80;99.90;;;;;;5044617;28;20437;-52
2021/11/14 03:46:22;;;;;;;14.20;10.70;;;11.10;99.90;;;;;;5050241;28;20919;-50
2021/11/14 03:48:50;;;;;;;12.43;10.90;;;11.10;99.90;;;;;;5040251;28;20191;-49
2021/11/14 03:51:16;;;;;;;13.67;10.97;;;10.80;99.90;;;;;;5050242;28;20418;-53
2021/11/14 03:53:43;;;;;;;11.13;10.00;;;10.80;99.90;;;;;;5045020;28;20414;-49
2021/11/14 03:56:09;;;;;;;11.17;9.80;;;11.00;99.90;;;;;;5041617;28;20426;-53
2021/11/14 03:58:36;;;;;;;11.40;10.20;;;11.00;99.90;;;;;;5042565;28;20441;-54
2021/11/14 04:01:06;;;;;;;12.30;10.43;;;11.10;99.90;;;;;;5043245;28;20499;-52
2021/11/14 04:03:32;;;;;;;11.10;9.47;;;11.20;99.90;;;;;;5042734;28;20842;-55
2021/11/14 04:05:59;;;;;;;12.30;10.90;;;11.10;99.90;;;;;;5043289;28;20888;-56
2021/11/14 04:08:25;;;;;;;11.20;10.00;;;11.20;99.90;;;;;;5045864;28;20457;-55
2021/11/14 04:10:54;;;;;;;11.47;10.27;;;11.30;99.90;;;;;;5044729;28;20474;-54
2021/11/14 04:13:20;;;;;;;10.43;9.30;;;11.30;99.90;;;;;;5046432;28;20950;-56
2021/11/14 04:15:46;;;;;;;12.50;10.00;;;11.30;99.90;;;;;;5040209;28;20993;-54
2021/11/14 04:18:12;;;;;;;13.27;10.40;;;11.40;99.90;;;;;;5046553;28;20476;-52
2021/11/14 04:20:41;;;;;;;11.70;10.50;;;11.40;99.90;;;;;;5042779;28;20523;-56
2021/11/14 04:23:08;;;;;;;12.13;10.33;;;11.40;99.90;;;;;;5043795;28;20427;-53
2021/11/14 04:25:34;;;;;;;13.90;11.10;;;11.50;99.90;;;;;;5047803;28;20858;-54
2021/11/14 04:27:59;;;;;;;11.97;10.80;;;11.40;99.90;;;;;;5047934;28;20432;-54
2021/11/14 04:30:26;;;;;;;11.97;10.73;;;11.40;99.90;;;;;;5042196;28;20219;-54
2021/11/14 04:32:52;;;;;;;12.30;10.37;;;11.50;99.90;;;;;;5046263;28;20218;-52
2021/11/14 04:35:18;;;;;;;12.97;10.57;;;11.50;99.90;;;;;;5043103;28;20448;-54
2021/11/14 04:37:48;;;;;;;13.23;11.77;;;11.50;99.90;;;;;;5046743;28;20856;-56
2021/11/14 04:40:14;;;;;;;12.13;10.83;;;11.50;99.90;;;;;;5042444;28;20238;-57
2021/11/14 04:42:40;;;;;;;15.40;11.20;;;11.50;99.90;;;;;;5043251;28;20430;-51
2021/11/14 04:45:06;;;;;;;11.80;10.60;;;11.50;99.90;;;;;;5042865;28;20437;-54
2021/11/14 04:47:32;;;;;;;12.73;11.43;;;11.50;99.90;;;;;;5041348;28;20484;-56
2021/11/14 04:49:58;;;;;;;12.60;10.70;;;11.40;99.90;;;;;;5046063;28;20469;-55
2021/11/14 04:52:23;;;;;;;12.00;10.80;;;11.50;99.90;;;;;;5042137;28;20191;-55
2021/11/14 04:54:49;;;;;;;11.63;10.50;;;11.50;99.90;;;;;;5043079;28;20230;-54
2021/11/14 04:57:15;;;;;;;13.47;11.70;;;11.30;99.90;;;;;;5045836;28;20183;-54
2021/11/14 04:59:40;;;;;;;13.37;11.37;;;11.40;99.90;;;;;;5045609;28;20734;-55
2021/11/14 05:02:06;;;;;;;16.30;11.93;;;11.40;99.90;;;;;;5040451;28;20450;-55
2021/11/14 05:04:32;;;;;;;12.20;10.97;;;11.40;99.90;;;;;;5048687;28;20649;-55
2021/11/14 05:06:57;;;;;;;12.30;11.10;;;11.40;99.90;;;;;;5044145;28;20192;-57
2021/11/14 05:09:23;;;;;;;11.77;10.57;;;11.50;99.90;;;;;;5048203;28;20302;-52
2021/11/14 05:11:49;;;;;;;12.13;10.83;;;11.50;99.90;;;;;;5045366;28;20191;-55
2021/11/14 05:14:15;;;;;;;12.40;11.10;;;11.60;99.90;;;;;;5040245;28;20431;-54
2021/11/14 05:16:40;;;;;;;11.50;9.90;;;11.60;99.90;;;;;;5043370;28;20199;-51
2021/11/14 05:19:06;;;;;;;12.40;10.20;;;11.60;99.90;;;;;;5043354;28;20219;-53
2021/11/14 05:21:31;;;;;;;11.53;10.33;;;11.60;99.90;;;;;;5041500;28;20188;-54
2021/11/14 05:23:57;;;;;;;11.63;10.43;;;11.40;99.90;;;;;;5039412;28;20191;-54
2021/11/14 05:26:23;;;;;;;12.93;11.63;;;11.50;99.90;;;;;;5041023;28;20200;-56
2021/11/14 05:28:49;;;;;;;10.53;9.53;;;11.40;99.90;;;;;;5043872;28;20194;-51
2021/11/14 05:31:14;;;;;;;13.30;11.60;;;11.50;99.90;;;;;;5040621;28;20183;-54
2021/11/14 05:33:40;;;;;;;11.50;10.00;;;11.50;99.90;;;;;;5042127;28;20773;-55
2021/11/14 05:36:05;;;;;;;13.27;11.20;;;11.60;99.90;;;;;;5047076;28;20264;-55
2021/11/14 05:38:31;;;;;;;12.80;11.43;;;11.50;99.90;;;;;;5046658;28;20234;-53
2021/11/14 05:40:57;;;;;;;11.73;10.53;;;11.50;99.90;;;;;;5042274;28;20274;-55
2021/11/14 05:43:22;;;;;;;11.87;10.73;;;11.50;99.90;;;;;;5045388;28;20196;-54
2021/11/14 05:45:48;;;;;;;12.93;11.63;;;11.50;99.90;;;;;;5042810;28;20191;-55
2021/11/14 05:48:14;;;;;;;13.70;11.70;;;11.60;99.90;;;;;;5044910;28;20569;-55
2021/11/14 05:50:39;;;;;;;11.97;10.77;;;11.60;99.90;;;;;;5045793;28;20218;-55
2021/11/14 05:53:05;;;;;;;17.97;12.20;;;11.50;99.90;;;;;;5044236;28;20357;-54
2021/11/14 05:55:32;;;;;;;16.60;12.87;;;11.50;99.90;;;;;;5046689;28;20180;-54
2021/11/14 05:58:02;;;;;;;13.47;12.07;;;11.50;99.90;;;;;;5050208;28;20422;-52
2021/11/14 06:00:52;;;;;;;15.03;12.00;;;11.40;99.90;;;;;;5044746;28;20454;-53
2021/11/14 06:05:50;;;;;;;13.10;11.80;;;11.40;99.90;;;;;;5050106;28;20881;-52
2021/11/14 06:08:20;;;;;;;14.83;12.03;;;11.40;99.90;;;;;;5044800;28;20788;-53
2021/11/14 06:10:47;;;;;;;15.33;13.73;;;11.30;99.90;;;;;;5049875;28;20481;-53
2021/11/14 06:13:13;;;;;;;20.67;15.87;;;11.40;99.90;;;;;;5047797;28;20426;-51
2021/11/14 06:15:39;;;;;;;14.90;13.40;;;11.30;99.90;;;;;;5044805;28;20852;-54
2021/11/14 06:18:04;;;;;;;14.10;12.60;;;11.30;99.90;;;;;;5050281;28;20275;-56
2021/11/14 06:20:30;;;;;;;15.53;13.70;;;11.30;99.90;;;;;;5051546;28;20195;-52
2021/11/14 06:22:56;;;;;;;14.83;13.23;;;11.30;99.90;;;;;;5044308;28;20581;-56
2021/11/14 06:25:22;;;;;;;15.70;13.50;;;11.30;99.90;;;;;;5044973;28;20364;-54
2021/11/14 06:27:48;;;;;;;15.80;14.10;;;11.30;99.90;;;;;;5046563;28;20915;-55
2021/11/14 06:30:15;;;;;;;16.67;14.30;;;11.30;99.90;;;;;;5047221;28;20286;-56
2021/11/14 06:32:42;;;;;;;18.67;14.80;;;11.30;99.90;;;;;;5046829;28;20437;-52
2021/11/14 06:35:09;;;;;;;16.33;14.57;;;11.20;99.90;;;;;;5045146;28;20441;-56
2021/11/14 06:37:35;;;;;;;17.70;14.20;;;11.30;99.90;;;;;;5050420;28;20513;-53
2021/11/14 06:40:00;;;;;;;16.00;14.10;;;11.30;99.90;;;;;;5049006;28;21077;-56
2021/11/14 06:42:26;;;;;;;18.00;14.50;;;11.40;99.90;;;;;;5043491;28;20200;-56
2021/11/14 06:44:51;;;;;;;15.80;14.07;;;11.30;99.90;;;;;;5045680;28;20188;-56
2021/11/14 06:47:17;;;;;;;14.97;13.47;;;11.20;99.90;;;;;;5047674;28;20222;-53
2021/11/14 06:49:44;;;;;;;17.67;14.33;;;11.30;99.90;;;;;;5041234;28;20770;-55
2021/11/14 06:52:11;;;;;;;18.83;14.13;;;11.30;99.90;;;;;;5044737;28;20179;-56
2021/11/14 06:54:36;;;;;;;18.20;16.27;;;11.30;99.90;;;;;;5047421;28;20422;-55
2021/11/14 06:57:02;;;;;;;18.83;14.07;;;11.30;99.90;;;;;;5044707;28;20429;-55
2021/11/14 06:59:28;;;;;;;19.90;16.13;;;11.20;99.90;;;;;;5044698;28;20219;-54
2021/11/14 07:01:54;;;;;;;19.97;16.10;;;11.20;99.90;;;;;;5044982;28;21006;-54
2021/11/14 07:04:19;;;;;;;18.50;15.33;;;11.30;99.90;;;;;;5042674;28;20183;-54
2021/11/14 07:06:46;;;;;;;19.23;16.20;;;11.30;99.90;;;;;;5048592;28;20200;-56
2021/11/14 07:09:13;;;;;;;26.23;16.97;;;11.20;99.90;;;;;;5043308;28;20212;-58
2021/11/14 07:11:39;;;;;;;22.60;17.07;;;11.20;99.90;;;;;;5048990;28;20421;-54
2021/11/14 07:14:05;;;;;;;17.97;15.40;;;11.20;99.90;;;;;;5044613;28;20796;-56
2021/11/14 07:16:30;;;;;;;17.90;15.50;;;11.20;99.90;;;;;;5045059;28;20538;-52
2021/11/14 07:18:57;;;;;;;18.10;15.30;;;11.20;99.90;;;;;;5044120;28;21035;-55
2021/11/14 07:21:23;;;;;;;22.17;17.07;;;11.20;99.90;;;;;;5043663;28;20550;-56
2021/11/14 07:23:49;;;;;;;18.87;16.73;;;11.20;99.90;;;;;;5046486;28;20426;-56
2021/11/14 07:26:15;;;;;;;19.73;16.63;;;11.20;99.90;;;;;;5043272;28;20991;-56
2021/11/14 07:28:41;;;;;;;22.07;17.50;;;11.20;99.90;;;;;;5046125;28;20786;-52
2021/11/14 07:31:07;;;;;;;22.27;18.27;;;11.30;99.90;;;;;;5047044;28;20479;-54
2021/11/14 07:33:32;;;;;;;21.90;17.97;;;11.20;99.90;;;;;;5042512;28;20665;-57
2021/11/14 07:35:59;;;;;;;24.93;18.13;;;11.10;99.90;;;;;;5047504;28;20243;-56
2021/11/14 07:38:24;;;;;;;19.60;16.83;;;11.10;99.90;;;;;;5043186;28;20188;-55
2021/11/14 07:40:50;;;;;;;27.93;19.20;;;11.20;99.90;;;;;;5043737;28;20822;-54
2021/11/14 07:43:17;;;;;;;24.47;17.80;;;11.20;99.90;;;;;;5049346;28;20238;-55
2021/11/14 07:45:43;;;;;;;24.00;17.77;;;11.30;99.90;;;;;;5043556;28;20426;-55
2021/11/14 07:48:10;;;;;;;24.70;18.40;;;11.20;99.90;;;;;;5044819;28;20456;-57
2021/11/14 07:50:36;;;;;;;22.17;17.80;;;11.20;99.90;;;;;;5048507;28;20210;-55
2021/11/14 07:53:03;;;;;;;26.20;17.97;;;11.10;99.90;;;;;;5046588;28;20433;-56
2021/11/14 07:55:28;;;;;;;23.40;18.77;;;11.30;99.90;;;;;;5045896;28;20435;-55
2021/11/14 07:57:54;;;;;;;24.07;17.73;;;11.30;99.90;;;;;;5042339;28;20504;-57
2021/11/14 08:00:22;;;;;;;23.23;17.27;;;11.30;99.90;;;;;;5045127;28;20204;-54
2021/11/14 08:02:49;;;;;;;20.77;17.50;;;11.30;99.90;;;;;;5044116;28;20660;-53
2021/11/14 08:05:15;;;;;;;23.10;18.90;;;11.30;99.90;;;;;;5042912;28;20469;-56
2021/11/14 08:07:42;;;;;;;29.63;20.13;;;11.30;99.90;;;;;;5041165;28;20422;-57
2021/11/14 08:10:09;;;;;;;27.77;22.27;;;11.40;99.90;;;;;;5042867;28;20548;-57
2021/11/14 08:12:36;;;;;;;24.07;19.13;;;11.40;99.90;;;;;;5038859;28;20549;-52
2021/11/14 08:15:03;;;;;;;25.30;20.50;;;11.40;99.90;;;;;;5047255;28;20959;-51
2021/11/14 08:17:29;;;;;;;27.50;21.00;;;11.50;99.90;;;;;;5040796;28;20221;-56
2021/11/14 08:19:58;;;;;;;27.00;19.60;;;11.60;99.90;;;;;;5044738;28;20454;-53
2021/11/14 08:22:24;;;;;;;26.20;19.87;;;11.70;99.90;;;;;;5044039;28;20276;-57
2021/11/14 08:24:49;;;;;;;27.97;22.00;;;11.70;99.90;;;;;;5047895;28;20869;-53
2021/11/14 08:27:15;;;;;;;30.00;22.10;;;11.70;99.90;;;;;;5042199;28;20625;-55
2021/11/14 08:29:41;;;;;;;26.77;20.27;;;11.70;99.90;;;;;;5043050;28;20239;-53
2021/11/14 08:32:07;;;;;;;26.67;19.97;;;11.70;99.90;;;;;;5046763;28;20266;-54
2021/11/14 08:34:32;;;;;;;22.60;18.60;;;11.70;99.90;;;;;;5042878;28;20207;-53
2021/11/14 08:36:58;;;;;;;27.07;21.13;;;11.90;99.90;;;;;;5048025;28;20939;-58
2021/11/14 08:39:24;;;;;;;24.13;18.83;;;11.90;99.90;;;;;;5046532;28;20231;-56
2021/11/14 08:41:49;;;;;;;25.87;20.60;;;12.00;99.90;;;;;;5040856;28;20195;-56
2021/11/14 08:44:16;;;;;;;23.20;17.20;;;12.10;99.90;;;;;;5045781;28;20430;-52
2021/11/14 08:46:42;;;;;;;24.83;19.43;;;12.20;99.90;;;;;;5050314;28;20191;-53
2021/11/14 08:49:07;;;;;;;26.73;17.43;;;12.10;99.90;;;;;;5043522;28;20908;-54
2021/11/14 08:51:33;;;;;;;23.33;18.20;;;12.10;99.90;;;;;;5041034;28;20574;-57
2021/11/14 08:53:59;;;;;;;25.93;19.60;;;12.20;99.90;;;;;;5049861;28;20172;-53
2021/11/14 08:56:32;;;;;;;21.57;18.10;;;12.10;99.90;;;;;;5044871;28;20653;-53
2021/11/14 08:58:58;;;;;;;21.93;18.47;;;12.20;99.90;;;;;;5042707;28;20874;-50
2021/11/14 09:01:23;;;;;;;24.27;18.03;;;12.30;99.90;;;;;;5043497;28;20541;-57
2021/11/14 09:03:49;;;;;;;20.77;15.87;;;12.30;99.90;;;;;;5042596;28;20438;-57
2021/11/14 09:06:15;;;;;;;21.97;16.77;;;12.30;99.90;;;;;;5047446;28;20302;-52
2021/11/14 09:08:41;;;;;;;21.07;16.67;;;12.20;99.90;;;;;;5045147;28;20188;-55
2021/11/14 09:11:07;;;;;;;23.30;16.43;;;12.10;99.90;;;;;;5045280;28;20484;-53
2021/11/14 09:13:33;;;;;;;24.00;17.53;;;12.10;99.90;;;;;;5049295;28;20180;-55
2021/11/14 09:15:58;;;;;;;23.63;18.07;;;12.10;99.90;;;;;;5043243;28;20558;-55
2021/11/14 09:18:25;;;;;;;23.93;17.73;;;12.10;99.90;;;;;;5039319;28;20191;-55
2021/11/14 09:20:50;;;;;;;20.87;15.30;;;12.10;99.90;;;;;;5044731;28;20757;-54
2021/11/14 09:23:16;;;;;;;21.27;16.70;;;12.10;99.90;;;;;;5042754;28;20461;-53
2021/11/14 09:25:42;;;;;;;20.23;16.20;;;12.10;99.90;;;;;;5044546;28;20196;-53
2021/11/14 09:28:10;;;;;;;22.10;16.40;;;12.10;99.90;;;;;;5049022;28;20418;-58
2021/11/14 09:30:36;;;;;;;21.47;17.20;;;12.20;99.90;;;;;;5040798;28;20478;-54
2021/11/14 09:33:03;;;;;;;21.40;16.67;;;12.10;99.90;;;;;;5049376;28;20864;-53
2021/11/14 09:35:29;;;;;;;24.20;18.80;;;12.00;99.90;;;;;;5044440;28;20423;-56
2021/11/14 09:37:54;;;;;;;22.60;18.07;;;12.00;99.90;;;;;;5049272;28;20517;-52
2021/11/14 09:40:23;;;;;;;23.50;17.97;;;12.10;99.90;;;;;;5044383;28;20701;-55
2021/11/14 09:42:49;;;;;;;25.23;18.57;;;12.00;99.90;;;;;;5045390;28;20202;-55
2021/11/14 09:45:14;;;;;;;28.37;19.87;;;12.00;99.90;;;;;;5043018;28;20426;-55
2021/11/14 09:47:40;;;;;;;24.83;18.93;;;12.10;99.90;;;;;;5048252;28;20282;-58
2021/11/14 09:50:07;;;;;;;25.10;18.97;;;12.10;99.90;;;;;;5045514;28;20215;-55
2021/11/14 09:52:34;;;;;;;26.30;18.10;;;12.20;99.90;;;;;;5044940;28;20183;-56
2021/11/14 09:55:02;;;;;;;22.90;18.30;;;12.20;99.90;;;;;;5049683;28;20425;-58
2021/11/14 09:57:28;;;;;;;22.47;16.63;;;12.20;99.90;;;;;;5043839;28;20446;-52
2021/11/14 09:59:53;;;;;;;22.03;17.83;;;12.20;99.90;;;;;;5049985;28;20495;-56
2021/11/14 10:02:19;;;;;;;24.83;18.60;;;12.10;99.90;;;;;;5044103;28;20204;-55
2021/11/14 10:04:45;;;;;;;23.20;17.60;;;12.20;99.90;;;;;;5047339;28;20267;-54
2021/11/14 10:07:15;;;;;;;25.20;19.00;;;12.20;99.90;;;;;;5050690;28;20191;-54
2021/11/14 10:09:47;;;;;;;26.27;18.93;;;12.20;99.90;;;;;;5044970;28;20751;-56
2021/11/14 10:12:31;;;;;;;25.20;19.23;;;12.30;99.90;;;;;;5044814;28;20523;-53
2021/11/14 10:15:09;;;;;;;26.60;18.90;;;12.30;99.90;;;;;;5047624;28;20430;-56
2021/11/14 10:17:37;;;;;;;25.07;19.37;;;12.30;99.90;;;;;;5044603;28;20914;-56
2021/11/14 10:20:14;;;;;;;23.60;17.40;;;12.40;99.90;;;;;;5042121;28;20605;-56
2021/11/14 10:22:43;;;;;;;25.43;18.30;;;12.30;99.90;;;;;;5047574;28;20430;-56
2021/11/14 10:25:11;;;;;;;22.37;17.07;;;12.40;99.90;;;;;;5049166;28;20784;-56
2021/11/14 10:27:37;;;;;;;24.40;18.40;;;12.40;99.90;;;;;;5046349;28;20457;-53
2021/11/14 10:30:05;;;;;;;22.10;17.00;;;12.50;99.90;;;;;;5046271;28;20470;-56
2021/11/14 10:32:30;;;;;;;20.73;16.40;;;12.50;99.90;;;;;;5048261;28;20426;-56
2021/11/14 10:35:04;;;;;;;24.10;15.90;;;12.50;99.90;;;;;;5046142;28;20826;-54
2021/11/14 10:37:42;;;;;;;19.70;16.53;;;12.50;99.90;;;;;;5044106;28;20593;-57
2021/11/14 10:40:09;;;;;;;21.23;15.93;;;12.50;99.90;;;;;;5049028;28;20454;-56
2021/11/14 10:42:35;;;;;;;21.63;16.67;;;12.50;99.90;;;;;;5047559;28;20815;-53
2021/11/14 10:45:04;;;;;;;18.50;15.63;;;12.60;99.90;;;;;;5046643;28;20442;-57
2021/11/14 10:47:30;;;;;;;20.30;16.13;;;12.70;99.90;;;;;;5045716;28;20186;-56
2021/11/14 10:50:04;;;;;;;22.27;15.33;;;12.70;99.90;;;;;;5044178;28;20521;-53
2021/11/14 10:52:31;;;;;;;17.33;15.23;;;12.70;99.90;;;;;;5044869;28;20512;-53
2021/11/14 10:55:09;;;;;;;19.60;15.07;;;12.60;99.90;;;;;;5049280;28;20501;-58
2021/11/14 10:57:37;;;;;;;19.30;16.00;;;12.60;99.90;;;;;;5043486;28;20426;-56
2021/11/14 11:00:13;;;;;;;19.30;15.70;;;12.70;99.90;;;;;;5048578;28;20450;-53
2021/11/14 11:02:43;;;;;;;20.27;15.67;;;12.70;99.90;;;;;;5046275;28;20437;-56
2021/11/14 11:05:18;;;;;;;22.00;15.97;;;12.60;99.90;;;;;;5044007;28;20837;-55
2021/11/14 11:08:12;;;;;;;18.50;14.40;;;12.70;99.90;;;;;;5043124;28;20446;-55
2021/11/14 11:10:41;;;;;;;21.93;15.23;;;12.70;99.90;;;;;;5046512;28;20500;-52
2021/11/14 11:13:10;;;;;;;19.67;14.43;;;12.70;99.90;;;;;;5046069;28;20828;-51
2021/11/14 11:15:47;;;;;;;19.27;15.50;;;12.70;99.90;;;;;;5044193;28;20448;-56
2021/11/14 11:18:19;;;;;;;21.77;15.70;;;12.70;99.90;;;;;;5047523;28;20426;-54
2021/11/14 11:20:49;;;;;;;19.57;15.70;;;12.80;99.90;;;;;;5044917;28;20949;-54
2021/11/14 11:23:17;;;;;;;20.60;16.47;;;12.80;99.90;;;;;;5043382;28;20483;-56
2021/11/14 11:25:51;;;;;;;22.10;17.30;;;12.70;99.90;;;;;;5049111;28;20460;-57
2021/11/14 11:28:21;;;;;;;23.07;18.07;;;12.70;99.90;;;;;;5044568;28;20807;-52
2021/11/14 11:30:50;;;;;;;20.53;17.63;;;12.70;99.90;;;;;;5046052;28;20474;-53
2021/11/14 11:33:17;;;;;;;23.27;17.77;;;12.60;99.90;;;;;;5042591;28;20430;-53
2021/11/14 11:35:43;;;;;;;24.60;17.57;;;12.70;99.90;;;;;;5048176;28;21116;-55
2021/11/14 11:38:09;;;;;;;24.33;17.87;;;12.70;99.90;;;;;;5041713;28;20484;-56
2021/11/14 11:40:35;;;;;;;23.10;17.90;;;12.70;99.90;;;;;;5045635;28;20478;-56
2021/11/14 11:43:01;;;;;;;23.33;17.87;;;12.70;99.90;;;;;;5046310;28;20440;-55
2021/11/14 11:45:39;;;;;;;24.80;17.17;;;12.70;99.90;;;;;;5052864;28;20191;-55
2021/11/14 11:48:31;;;;;;;23.23;18.17;;;12.80;99.90;;;;;;5046380;28;20187;-55
2021/11/14 11:51:08;;;;;;;22.40;16.80;;;12.80;99.90;;;;;;5030267;28;20848;-52
2021/11/14 11:53:34;;;;;;;20.37;15.47;;;12.80;99.90;;;;;;5046764;28;20434;-57
2021/11/14 11:56:13;;;;;;;20.40;15.30;;;12.80;99.90;;;;;;5043836;28;20517;-54
2021/11/14 11:58:46;;;;;;;23.17;17.67;;;12.80;99.90;;;;;;5040091;28;20446;-53
2021/11/14 12:01:31;;;;;;;23.77;16.60;;;12.70;99.90;;;;;;5043200;28;20433;-52
2021/11/14 12:04:12;;;;;;;25.73;18.47;;;12.60;99.90;;;;;;5046171;28;20470;-55
2021/11/14 12:06:43;;;;;;;20.60;15.70;;;12.50;99.90;;;;;;5041191;28;20613;-53
2021/11/14 12:09:16;;;;;;;20.10;15.00;;;12.50;99.90;;;;;;5042429;28;20471;-56
2021/11/14 12:11:48;;;;;;;20.07;16.37;;;12.60;99.90;;;;;;5042887;28;20814;-54
2021/11/14 12:14:21;;;;;;;23.00;16.33;;;12.60;99.90;;;;;;5040440;28;20454;-53
2021/11/14 12:17:20;;;;;;;25.27;16.27;;;12.70;99.90;;;;;;5045952;28;20434;-55
2021/11/14 12:19:46;;;;;;;24.90;16.83;;;12.60;99.90;;;;;;5040802;28;20451;-56
2021/11/14 12:22:18;;;;;;;25.80;16.50;;;12.60;99.90;;;;;;5045317;28;20434;-54
2021/11/14 12:24:59;;;;;;;27.67;17.30;;;12.70;99.90;;;;;;5046463;28;20195;-55
2021/11/14 12:27:32;;;;;;;27.80;18.50;;;12.70;99.90;;;;;;5045617;28;20432;-58
2021/11/14 12:30:01;;;;;;;31.03;19.17;;;12.70;99.90;;;;;;5041164;28;20877;-55
2021/11/14 12:32:43;;;;;;;26.17;18.67;;;12.60;99.90;;;;;;5047690;28;20448;-57